createdAt,value
2023-04-14T00:00:45.598Z,2.83
2023-04-14T00:03:13.679Z,3.47
2023-04-14T00:05:41.682Z,3.13
2023-04-14T00:08:09.703Z,3.23
2023-04-14T00:10:38.892Z,3.00
2023-04-14T00:13:06.794Z,3.20
2023-04-14T00:15:34.604Z,3.33
2023-04-14T00:18:02.579Z,3.10
2023-04-14T00:20:30.437Z,3.33
2023-04-14T00:22:58.320Z,3.60
2023-04-14T00:25:26.204Z,3.40
2023-04-14T00:27:55.460Z,3.40
2023-04-14T00:30:23.380Z,3.50
2023-04-14T00:32:51.327Z,3.70
2023-04-14T00:35:19.216Z,3.47
2023-04-14T00:37:47.110Z,3.50
2023-04-14T00:40:14.923Z,3.70
2023-04-14T00:42:44.253Z,3.70
2023-04-14T00:45:14.371Z,3.63
2023-04-14T00:47:46.861Z,4.00
2023-04-14T00:50:16.213Z,3.57
2023-04-14T00:52:45.435Z,3.50
2023-04-14T00:55:16.408Z,4.10
2023-04-14T00:57:44.720Z,3.80
2023-04-14T01:00:15.585Z,3.63
2023-04-14T01:02:43.685Z,3.70
2023-04-14T01:05:12.471Z,3.93
2023-04-14T01:07:41.204Z,4.00
2023-04-14T01:10:11.422Z,3.63
2023-04-14T01:13:01.648Z,3.90
2023-04-14T01:15:36.534Z,3.73
2023-04-14T01:18:15.753Z,3.67
2023-04-14T01:20:46.419Z,3.70
2023-04-14T01:23:20.747Z,3.93
2023-04-14T01:26:21.487Z,3.73
2023-04-14T01:29:07.863Z,3.70
2023-04-14T01:31:42.013Z,3.80
2023-04-14T01:34:15.334Z,3.67
2023-04-14T01:36:46.985Z,3.40
2023-04-14T01:39:21.929Z,3.50
2023-04-14T01:41:55.889Z,3.50
2023-04-14T01:44:26.030Z,3.63
2023-04-14T01:47:03.299Z,4.10
2023-04-14T01:49:33.789Z,4.10
2023-04-14T01:52:03.010Z,4.00
2023-04-14T01:54:32.953Z,3.83
2023-04-14T01:57:02.678Z,3.90
2023-04-14T01:59:33.073Z,4.10
2023-04-14T02:02:03.596Z,3.80
2023-04-14T02:04:33.103Z,4.13
2023-04-14T02:07:04.046Z,4.03
2023-04-14T02:09:33.582Z,3.83
2023-04-14T02:12:02.211Z,3.90
2023-04-14T02:14:31.819Z,4.00
2023-04-14T02:17:02.635Z,4.07
2023-04-14T02:19:31.594Z,4.20
2023-04-14T02:22:00.718Z,4.07
2023-04-14T02:24:28.652Z,4.00
2023-04-14T02:27:03.348Z,3.80
2023-04-14T02:29:34.705Z,3.40
2023-04-14T02:32:07.216Z,3.87
2023-04-14T02:34:39.259Z,3.03
2023-04-14T02:37:12.906Z,2.80
2023-04-14T02:39:43.637Z,2.80
2023-04-14T02:42:14.700Z,2.93
2023-04-14T02:44:48.804Z,2.70
2023-04-14T02:47:27.877Z,3.00
2023-04-14T02:50:01.460Z,2.77
2023-04-14T02:52:32.792Z,2.93
2023-04-14T02:55:02.454Z,2.60
2023-04-14T02:57:33.046Z,2.53
2023-04-14T03:00:01.771Z,2.80
2023-04-14T03:02:32.537Z,2.67
2023-04-14T03:05:08.931Z,3.13
2023-04-14T03:07:47.435Z,3.37
2023-04-14T03:10:18.060Z,3.10
2023-04-14T03:12:47.693Z,2.90
2023-04-14T03:15:18.049Z,3.43
2023-04-14T03:17:53.913Z,3.43
2023-04-14T03:20:24.119Z,3.33
2023-04-14T03:22:58.160Z,3.10
2023-04-14T03:25:30.120Z,2.97
2023-04-14T03:28:01.904Z,2.90
2023-04-14T03:30:32.722Z,3.30
2023-04-14T03:33:06.918Z,2.80
2023-04-14T03:35:37.208Z,3.27
2023-04-14T03:38:09.120Z,2.80
2023-04-14T03:40:41.180Z,3.10
2023-04-14T03:43:12.230Z,3.20
2023-04-14T03:45:44.214Z,3.40
2023-04-14T03:48:17.073Z,3.83
2023-04-14T03:50:51.455Z,4.67
2023-04-14T03:53:21.682Z,4.43
2023-04-14T03:55:52.436Z,3.93
2023-04-14T03:58:22.217Z,4.00
2023-04-14T04:00:52.989Z,3.80
2023-04-14T04:03:23.980Z,3.80
2023-04-14T04:05:53.685Z,4.17
2023-04-14T04:08:23.481Z,3.80
2023-04-14T04:10:52.471Z,3.57
2023-04-14T04:13:22.450Z,3.50
2023-04-14T04:15:52.219Z,3.80
2023-04-14T04:18:26.897Z,3.50
2023-04-14T04:20:58.740Z,3.60
2023-04-14T04:23:31.036Z,3.40
2023-04-14T04:25:59.508Z,3.43
2023-04-14T04:28:39.660Z,3.83
2023-04-14T04:31:10.375Z,3.87
2023-04-14T04:33:41.388Z,4.33
2023-04-14T04:36:10.452Z,4.07
2023-04-14T04:38:43.617Z,3.60
2023-04-14T04:41:22.173Z,3.83
2023-04-14T04:43:50.939Z,4.23
2023-04-14T04:46:49.519Z,3.93
2023-04-14T04:49:19.425Z,4.03
2023-04-14T04:51:47.812Z,4.40
2023-04-14T04:54:18.211Z,4.43
2023-04-14T04:56:46.346Z,4.63
2023-04-14T04:59:14.204Z,4.93
2023-04-14T05:01:42.755Z,4.67
2023-04-14T05:04:10.723Z,4.90
2023-04-14T05:06:40.055Z,4.50
2023-04-14T05:09:08.163Z,4.70
2023-04-14T05:11:36.246Z,5.10
2023-04-14T05:14:04.500Z,4.23
2023-04-14T05:16:33.421Z,4.20
2023-04-14T05:19:02.890Z,4.33
2023-04-14T05:21:30.950Z,4.63
2023-04-14T05:24:00.365Z,4.30
2023-04-14T05:26:49.178Z,4.27
2023-04-14T05:29:16.882Z,4.30
2023-04-14T05:31:44.826Z,4.20
2023-04-14T05:34:12.757Z,4.70
2023-04-14T05:36:40.608Z,4.43
2023-04-14T05:39:09.788Z,4.80
2023-04-14T05:41:37.566Z,5.30
2023-04-14T05:44:05.500Z,4.60
2023-04-14T05:46:33.450Z,4.80
2023-04-14T05:49:01.793Z,5.00
2023-04-14T05:51:30.269Z,4.60
2023-04-14T05:53:58.346Z,4.90
2023-04-14T05:56:28.121Z,4.77
2023-04-14T05:58:56.744Z,5.00
2023-04-14T06:01:24.538Z,5.20
2023-04-14T06:03:52.579Z,5.40
2023-04-14T06:06:20.683Z,5.50
2023-04-14T06:08:48.640Z,5.90
2023-04-14T06:11:16.430Z,6.40
2023-04-14T06:13:45.633Z,7.80
2023-04-14T06:16:13.486Z,8.20
2023-04-14T06:18:41.365Z,8.13
2023-04-14T06:21:09.168Z,8.80
2023-04-14T06:23:37.019Z,9.17
2023-04-14T06:26:05.428Z,10.60
2023-04-14T06:28:33.540Z,11.20
2023-04-14T06:31:02.728Z,11.40
2023-04-14T06:33:31.599Z,11.93
2023-04-14T06:35:59.503Z,13.30
2023-04-14T06:38:27.380Z,12.87
2023-04-14T06:40:55.213Z,8.30
2023-04-14T06:43:23.052Z,7.30
2023-04-14T06:45:51.600Z,7.50
2023-04-14T06:48:20.789Z,6.97
2023-04-14T06:50:54.631Z,7.47
2023-04-14T06:53:22.515Z,6.87
2023-04-14T06:55:51.538Z,8.13
2023-04-14T06:58:19.496Z,9.83
2023-04-14T07:00:47.264Z,11.27
2023-04-14T07:03:15.609Z,11.90
2023-04-14T07:05:44.928Z,11.13
2023-04-14T07:08:12.758Z,10.77
2023-04-14T07:10:40.946Z,11.40
2023-04-14T07:13:08.832Z,10.67
2023-04-14T07:15:36.921Z,10.60
2023-04-14T07:18:05.858Z,9.50
2023-04-14T07:20:33.765Z,10.10
2023-04-14T07:23:02.967Z,8.83
2023-04-14T07:25:30.880Z,7.80
2023-04-14T07:28:03.462Z,8.00
2023-04-14T07:30:32.514Z,7.97
2023-04-14T07:33:00.825Z,7.53
2023-04-14T07:35:29.219Z,7.70
2023-04-14T07:37:57.008Z,6.50
2023-04-14T07:40:26.880Z,6.30
2023-04-14T07:42:54.758Z,6.60
2023-04-14T07:45:22.720Z,5.87
2023-04-14T07:47:52.036Z,6.33
2023-04-14T07:50:20.395Z,5.53
2023-04-14T07:52:48.202Z,5.50
2023-04-14T07:55:16.432Z,5.57
2023-04-14T07:57:45.612Z,5.63
2023-04-14T08:00:14.615Z,5.97
2023-04-14T08:02:42.685Z,4.80
2023-04-14T08:05:10.792Z,5.60
2023-04-14T08:07:38.627Z,4.23
2023-04-14T08:10:07.381Z,4.87
2023-04-14T08:12:35.325Z,3.83
2023-04-14T08:15:05.023Z,4.30
2023-04-14T08:17:32.933Z,4.20
2023-04-14T08:20:00.906Z,4.27
2023-04-14T08:22:28.711Z,3.70
2023-04-14T08:24:56.736Z,4.27
2023-04-14T08:27:24.595Z,4.10
2023-04-14T08:29:52.524Z,3.90
2023-04-14T08:32:22.199Z,4.80
2023-04-14T08:35:36.923Z,4.10
2023-04-14T08:37:37.889Z,4.00
2023-04-14T08:40:10.065Z,3.90
2023-04-14T08:42:38.701Z,3.67
2023-04-14T08:45:07.555Z,3.93
2023-04-14T08:47:39.786Z,4.07
2023-04-14T08:50:11.393Z,4.30
2023-04-14T08:52:42.149Z,4.77
2023-04-14T08:55:11.962Z,4.40
2023-04-14T08:57:42.319Z,4.50
2023-04-14T09:00:11.765Z,4.00
2023-04-14T09:02:41.397Z,3.90
2023-04-14T09:05:10.765Z,4.27
2023-04-14T09:07:39.465Z,4.77
2023-04-14T09:10:09.292Z,4.40
2023-04-14T09:12:41.701Z,4.30
2023-04-14T09:15:11.377Z,3.90
2023-04-14T09:17:40.973Z,3.50
2023-04-14T09:20:35.683Z,3.67
2023-04-14T09:22:57.726Z,3.30
2023-04-14T09:25:26.194Z,3.07
2023-04-14T09:27:54.592Z,3.23
2023-04-14T09:30:22.649Z,3.03
2023-04-14T09:32:54.497Z,3.27
2023-04-14T09:35:22.718Z,2.80
2023-04-14T09:37:50.510Z,2.70
2023-04-14T09:40:32.000Z,2.63
2023-04-14T09:43:00.302Z,2.70
2023-04-14T09:45:42.944Z,2.30
2023-04-14T09:48:14.430Z,2.37
2023-04-14T09:51:03.215Z,2.40
2023-04-14T09:53:33.400Z,2.27
2023-04-14T09:56:04.838Z,2.30
2023-04-14T09:58:35.339Z,2.33
2023-04-14T10:01:04.514Z,2.20
2023-04-14T10:03:40.048Z,2.00
2023-04-14T10:06:09.621Z,1.70
2023-04-14T10:08:39.036Z,2.30
2023-04-14T10:11:25.758Z,2.00
2023-04-14T10:13:56.206Z,1.93
2023-04-14T10:16:26.375Z,1.90
2023-04-14T10:18:57.434Z,1.90
2023-04-14T10:21:27.784Z,2.33
2023-04-14T10:23:57.656Z,1.80
2023-04-14T10:26:26.208Z,2.10
2023-04-14T10:28:55.482Z,2.43
2023-04-14T10:31:27.465Z,1.40
2023-04-14T10:33:58.918Z,1.40
2023-04-14T10:36:28.767Z,1.47
2023-04-14T10:39:02.272Z,1.67
2023-04-14T10:41:46.788Z,1.47
2023-04-14T10:44:29.327Z,1.90
2023-04-14T10:46:59.992Z,1.67
2023-04-14T10:49:33.186Z,1.80
2023-04-14T10:52:03.474Z,1.87
2023-04-14T10:54:50.696Z,2.20
2023-04-14T10:57:20.029Z,1.97
2023-04-14T10:59:48.926Z,2.50
2023-04-14T11:02:27.862Z,2.53
2023-04-14T11:05:10.807Z,2.40
2023-04-14T11:07:44.628Z,2.27
2023-04-14T11:10:31.453Z,2.27
2023-04-14T11:13:03.784Z,2.60
2023-04-14T11:15:45.499Z,2.50
2023-04-14T11:18:15.106Z,1.90
2023-04-14T11:20:45.210Z,2.30
2023-04-14T11:23:16.335Z,2.60
2023-04-14T11:25:45.435Z,2.40
2023-04-14T11:28:13.395Z,2.47
2023-04-14T11:30:42.985Z,2.10
2023-04-14T11:33:11.056Z,2.13
2023-04-14T11:35:39.108Z,1.97
2023-04-14T11:38:11.946Z,2.10
2023-04-14T11:40:39.898Z,1.93
2023-04-14T11:43:08.040Z,2.03
2023-04-14T11:45:36.273Z,2.07
2023-04-14T11:48:05.543Z,2.17
2023-04-14T11:50:35.877Z,2.30
2023-04-14T11:53:07.503Z,2.50
2023-04-14T11:55:36.740Z,2.60
2023-04-14T11:58:04.742Z,2.53
2023-04-14T12:00:32.673Z,2.53
2023-04-14T12:03:03.614Z,2.50
2023-04-14T12:05:33.760Z,2.60
2023-04-14T12:08:03.676Z,3.20
2023-04-14T12:10:32.825Z,2.80
2023-04-14T12:13:03.093Z,3.07
2023-04-14T12:15:32.427Z,3.20
2023-04-14T12:18:01.138Z,2.83
2023-04-14T12:20:30.240Z,2.13
2023-04-14T12:23:02.870Z,2.77
2023-04-14T12:25:33.760Z,2.80
2023-04-14T12:28:06.292Z,2.30
2023-04-14T12:30:34.834Z,2.50
2023-04-14T12:33:09.541Z,2.43
2023-04-14T12:35:37.468Z,3.80
2023-04-14T12:38:10.684Z,4.07
2023-04-14T12:40:39.325Z,4.33
2023-04-14T12:43:08.507Z,5.53
2023-04-14T12:45:44.024Z,4.97
2023-04-14T12:48:13.454Z,4.63
2023-04-14T12:50:41.650Z,5.10
2023-04-14T12:53:25.277Z,4.27
2023-04-14T12:56:08.942Z,5.00
2023-04-14T12:58:39.553Z,5.30
2023-04-14T13:01:08.047Z,5.13
2023-04-14T13:03:41.068Z,4.60
2023-04-14T13:06:09.477Z,4.03
2023-04-14T13:08:37.322Z,4.23
2023-04-14T13:11:06.114Z,4.27
2023-04-14T13:13:33.971Z,4.40
2023-04-14T13:16:13.585Z,4.40
2023-04-14T13:18:43.546Z,4.57
2023-04-14T13:21:11.614Z,4.17
2023-04-14T13:23:39.909Z,3.63
2023-04-14T13:26:07.834Z,3.80
2023-04-14T13:28:36.423Z,3.63
2023-04-14T13:31:05.857Z,3.80
2023-04-14T13:33:34.063Z,3.63
2023-04-14T13:36:02.721Z,3.47
2023-04-14T13:38:31.157Z,3.23
2023-04-14T13:40:59.138Z,3.57
2023-04-14T13:43:27.252Z,4.40
2023-04-14T13:45:57.916Z,3.93
2023-04-14T13:48:27.313Z,4.30
2023-04-14T13:50:55.720Z,4.70
2023-04-14T13:53:23.806Z,4.53
2023-04-14T13:55:51.997Z,4.63
2023-04-14T13:58:19.814Z,4.63
2023-04-14T14:00:47.668Z,4.30
2023-04-14T14:03:16.038Z,3.60
2023-04-14T14:05:45.616Z,5.40
2023-04-14T14:08:14.684Z,4.53
2023-04-14T14:10:42.793Z,5.80
2023-04-14T14:13:10.977Z,5.53
2023-04-14T14:15:38.886Z,4.93
2023-04-14T14:18:07.018Z,5.30
2023-04-14T14:20:35.004Z,4.63
2023-04-14T14:23:04.198Z,5.87
2023-04-14T14:25:32.148Z,5.60
2023-04-14T14:27:59.984Z,5.70
2023-04-14T14:30:28.026Z,6.33
2023-04-14T14:32:55.932Z,5.70
2023-04-14T14:35:24.070Z,5.67
2023-04-14T14:37:51.861Z,4.40
2023-04-14T14:40:21.259Z,4.70
2023-04-14T14:42:49.297Z,4.37
2023-04-14T14:45:19.008Z,4.77
2023-04-14T14:47:58.590Z,5.17
2023-04-14T14:50:26.420Z,5.93
2023-04-14T14:52:56.002Z,7.00
2023-04-14T14:55:25.358Z,7.20
2023-04-14T14:57:53.214Z,6.27
2023-04-14T15:00:21.444Z,6.37
2023-04-14T15:02:49.653Z,5.83
2023-04-14T15:05:17.889Z,6.13
2023-04-14T15:07:45.765Z,6.00
2023-04-14T15:10:13.577Z,4.93
2023-04-14T15:12:42.789Z,4.40
2023-04-14T15:15:11.368Z,4.13
2023-04-14T15:17:39.284Z,4.37
2023-04-14T15:20:08.269Z,5.10
2023-04-14T15:22:36.323Z,5.00
2023-04-14T15:25:04.281Z,4.10
2023-04-14T15:27:32.802Z,3.97
2023-04-14T15:30:01.923Z,4.10
2023-04-14T15:32:29.904Z,4.47
2023-04-14T15:34:58.286Z,3.63
2023-04-14T15:37:27.745Z,3.87
2023-04-14T15:39:56.254Z,3.37
2023-04-14T15:42:24.182Z,2.80
2023-04-14T15:44:51.994Z,2.57
2023-04-14T15:47:21.282Z,2.90
2023-04-14T15:49:50.080Z,3.30
2023-04-14T15:52:20.837Z,4.13
2023-04-14T15:54:48.623Z,4.07
2023-04-14T15:57:16.791Z,5.03
2023-04-14T15:59:44.632Z,4.47
2023-04-14T16:02:12.603Z,5.70
2023-04-14T16:04:42.058Z,5.77
2023-04-14T16:07:10.162Z,6.10
2023-04-14T16:09:37.954Z,5.47
2023-04-14T16:12:05.826Z,6.47
2023-04-14T16:14:35.091Z,5.53
2023-04-14T16:17:03.021Z,5.30
2023-04-14T16:19:30.861Z,4.77
2023-04-14T16:22:00.317Z,3.57
2023-04-14T16:24:28.232Z,5.10
2023-04-14T16:26:56.683Z,5.00
2023-04-14T16:29:24.610Z,5.93
2023-04-14T16:31:52.681Z,5.80
2023-04-14T16:34:21.055Z,5.80
2023-04-14T16:36:48.986Z,5.43
2023-04-14T16:39:18.134Z,7.90
2023-04-14T16:41:46.324Z,7.77
2023-04-14T16:44:14.193Z,7.70
2023-04-14T16:46:42.169Z,7.33
2023-04-14T16:49:09.986Z,7.27
2023-04-14T16:51:38.436Z,8.30
2023-04-14T16:54:06.264Z,7.30
2023-04-14T16:56:36.798Z,7.13
2023-04-14T16:59:07.011Z,8.20
2023-04-14T17:01:34.834Z,9.03
2023-04-14T17:04:04.108Z,9.70
2023-04-14T17:06:32.623Z,10.80
2023-04-14T17:09:01.394Z,9.77
2023-04-14T17:11:29.256Z,10.50
2023-04-14T17:13:58.432Z,10.80
2023-04-14T17:16:26.454Z,11.93
2023-04-14T17:18:54.281Z,11.90
2023-04-14T17:21:22.118Z,12.13
2023-04-14T17:23:49.955Z,11.87
2023-04-14T17:26:17.845Z,11.50
2023-04-14T17:28:46.033Z,11.50
2023-04-14T17:31:15.603Z,10.73
2023-04-14T17:33:44.516Z,11.17
2023-04-14T17:36:14.531Z,9.77
2023-04-14T17:38:43.453Z,11.30
2023-04-14T17:41:12.867Z,11.10
2023-04-14T17:43:41.398Z,10.70
2023-04-14T17:46:10.192Z,11.30
2023-04-14T17:48:40.304Z,10.77
2023-04-14T17:51:08.386Z,10.47
2023-04-14T17:53:36.535Z,8.40
2023-04-14T17:56:04.657Z,11.10
2023-04-14T17:58:33.223Z,10.00
2023-04-14T18:01:01.177Z,11.17
2023-04-14T18:03:29.387Z,11.30
2023-04-14T18:05:59.080Z,11.43
2023-04-14T18:08:26.952Z,13.73
2023-04-14T18:10:55.163Z,10.47
2023-04-14T18:13:28.268Z,11.13
2023-04-14T18:15:56.401Z,11.00
2023-04-14T18:18:25.934Z,12.27
2023-04-14T18:20:53.955Z,10.63
2023-04-14T18:23:23.453Z,10.83
2023-04-14T18:28:30.794Z,10.67
2023-04-14T18:30:59.251Z,10.50
2023-04-14T18:33:27.930Z,12.40
2023-04-14T18:35:57.995Z,11.03
2023-04-14T18:38:27.398Z,11.03
2023-04-14T18:40:55.340Z,11.90
2023-04-14T18:43:23.327Z,14.37
2023-04-14T18:45:51.449Z,10.73
2023-04-14T18:48:19.996Z,11.37
2023-04-14T18:50:49.014Z,10.43
2023-04-14T18:53:16.927Z,14.07
2023-04-14T18:55:46.967Z,14.33
2023-04-14T18:58:17.159Z,12.03
2023-04-14T19:00:46.181Z,12.07
2023-04-14T19:03:15.175Z,9.70
2023-04-14T19:05:43.412Z,10.37
2023-04-14T19:08:11.403Z,11.53
2023-04-14T19:10:40.400Z,11.67
2023-04-14T19:13:11.120Z,15.03
2023-04-14T19:15:39.044Z,12.57
2023-04-14T19:18:06.880Z,13.03
2023-04-14T19:20:34.805Z,13.63
2023-04-14T19:23:02.583Z,11.87
2023-04-14T19:25:31.089Z,10.27
2023-04-14T19:28:01.109Z,10.63
2023-04-14T19:30:30.352Z,11.57
2023-04-14T19:32:58.318Z,12.83
2023-04-14T19:35:26.188Z,12.10
2023-04-14T19:37:55.759Z,12.90
2023-04-14T19:40:24.064Z,13.77
2023-04-14T19:42:54.977Z,11.97
2023-04-14T19:45:22.833Z,12.27
2023-04-14T19:47:52.158Z,10.57
2023-04-14T19:50:20.246Z,13.07
2023-04-14T19:52:49.740Z,13.10
2023-04-14T19:55:18.028Z,12.20
2023-04-14T19:57:46.922Z,13.13
2023-04-14T20:00:16.722Z,11.47
2023-04-14T20:02:44.871Z,12.70
2023-04-14T20:05:14.244Z,12.87
2023-04-14T20:07:42.217Z,11.07
2023-04-14T20:10:11.890Z,11.30
2023-04-14T20:12:40.286Z,8.90
2023-04-14T20:15:09.245Z,8.87
2023-04-14T20:17:37.083Z,10.77
2023-04-14T20:20:05.820Z,12.10
2023-04-14T20:22:35.530Z,11.83
2023-04-14T20:25:03.329Z,8.30
2023-04-14T20:27:31.561Z,8.50
2023-04-14T20:29:59.596Z,9.10
2023-04-14T20:32:27.653Z,8.67
2023-04-14T20:34:55.521Z,9.30
2023-04-14T20:37:23.688Z,8.60
2023-04-14T20:39:53.144Z,8.40
2023-04-14T20:42:21.002Z,9.13
2023-04-14T20:44:48.779Z,10.57
2023-04-14T20:47:16.959Z,10.47
2023-04-14T20:49:44.916Z,9.93
2023-04-14T20:52:12.805Z,11.77
2023-04-14T20:54:40.628Z,10.97
2023-04-14T20:57:10.423Z,10.90
2023-04-14T20:59:38.338Z,11.03
2023-04-14T21:02:06.317Z,10.83
2023-04-14T21:04:34.806Z,10.50
2023-04-14T21:07:03.603Z,11.00
2023-04-14T21:09:32.393Z,10.70
2023-04-14T21:12:15.526Z,11.20
2023-04-14T21:15:42.100Z,10.97
2023-04-14T21:17:34.683Z,9.97
2023-04-14T21:20:03.471Z,9.60
2023-04-14T21:22:32.170Z,10.17
2023-04-14T21:25:00.417Z,9.03
2023-04-14T21:27:29.265Z,7.70
2023-04-14T21:29:58.419Z,7.17
2023-04-14T21:32:26.347Z,8.77
2023-04-14T21:34:54.545Z,8.30
2023-04-14T21:37:23.055Z,8.53
2023-04-14T21:39:50.896Z,7.60
2023-04-14T21:42:18.773Z,8.07
2023-04-14T21:44:46.786Z,7.43
2023-04-14T21:47:16.274Z,8.13
2023-04-14T21:49:44.146Z,9.50
2023-04-14T21:52:11.985Z,8.57
2023-04-14T21:54:41.471Z,8.03
2023-04-14T21:57:09.588Z,7.60
2023-04-14T21:59:37.407Z,6.83
2023-04-14T22:02:05.492Z,6.87
2023-04-14T22:04:36.946Z,5.57
2023-04-14T22:07:06.438Z,6.73
2023-04-14T22:09:34.462Z,5.80
2023-04-14T22:12:03.233Z,4.43
2023-04-14T22:14:31.059Z,5.60
2023-04-14T22:16:58.977Z,4.37
2023-04-14T22:19:28.461Z,5.70
2023-04-14T22:21:57.680Z,5.93
2023-04-14T22:24:25.462Z,3.93
2023-04-14T22:26:53.765Z,5.23
2023-04-14T22:29:21.652Z,4.83
2023-04-14T22:31:49.517Z,5.70
2023-04-14T22:34:17.538Z,6.20
2023-04-14T22:36:45.428Z,5.17
2023-04-14T22:39:14.660Z,5.50
2023-04-14T22:41:43.287Z,5.73
2023-04-14T22:44:11.489Z,5.93
2023-04-14T22:46:39.374Z,5.60
2023-04-14T22:49:07.390Z,5.77
2023-04-14T22:51:35.478Z,5.67
2023-04-14T22:54:04.515Z,6.20
2023-04-14T22:56:33.858Z,3.43
2023-04-14T22:59:02.221Z,5.60
2023-04-14T23:01:30.437Z,6.43
2023-04-14T23:03:58.393Z,5.93
2023-04-14T23:06:26.387Z,5.67
2023-04-14T23:08:54.218Z,6.27
2023-04-14T23:11:22.258Z,6.10
2023-04-14T23:13:51.575Z,5.23
2023-04-14T23:16:20.456Z,5.53
2023-04-14T23:18:51.712Z,5.70
2023-04-14T23:21:20.463Z,5.57
2023-04-14T23:23:48.385Z,4.60
2023-04-14T23:26:17.195Z,5.10
2023-04-14T23:28:45.084Z,5.20
2023-04-14T23:31:14.637Z,5.63
2023-04-14T23:33:42.596Z,5.60
2023-04-14T23:36:10.428Z,5.77
2023-04-14T23:38:38.655Z,5.73
2023-04-14T23:41:07.057Z,6.10
2023-04-14T23:43:35.106Z,6.43
2023-04-14T23:46:02.942Z,5.90
2023-04-14T23:48:32.355Z,6.50
2023-04-14T23:51:14.084Z,6.67
2023-04-14T23:53:48.241Z,6.27
2023-04-14T23:56:16.287Z,6.50
2023-04-14T23:58:44.491Z,6.23
